UIUU Airport Information

Runway Information
Runway 08 Length 9780 ft width 150 ft
Elevation 1690 ft Threshold 0 ft Heading 78
Runway 26 Length 9780 ft Width 150 ft
Elevation 1657 ft Threshold 0 ft Heading 258
Runway 08L Length 6700 ft width 340 ft
Elevation 0 ft Threshold 0 ft Heading 78
Runway 26R Length 6700 ft Width 340 ft
Elevation 0 ft Threshold 0 ft Heading 258
Runway 14 Length 4630 ft width 315 ft
Elevation 0 ft Threshold 0 ft Heading 135
Runway 32 Length 4630 ft Width 315 ft
Elevation 0 ft Threshold 0 ft Heading 315
Airport Frequencies
Type APP Name ULAN UDE A Frequency 129.3 MHZ
Type ATIS Name ATIS Frequency 126.6 MHZ
Type TWR Name ULAN UDE T Frequency 118.1 MHZ
Airport Navaids
Type NDB Name Ulan-Ude Frequency 349 KHZ
Airport Weather Information & NOTAM
ADDS - METARS form results

(1447 UTC 16 April 2021)
Data provider http://aviationweather.gov/metar/data/
 
METAR text: UIUU 161430Z 28004MPS 9999 NSC 01/M08 Q1014 R26/60D NOSIG RMK QFE716/0955
Conditions at: UIUU (ULAN-UDE/MUHINO , RU) observed 1430 UTC 16 April 2021
Temperature: 1.0°C (34°F)
Dewpoint: -8.0°C (18°F) [RH = 51%]
Pressure (altimeter): 29.94 inches Hg (1014.0 mb)
Winds: from the W (280 degrees) at 9 MPH (8 knots; 4.1 m/s)
Visibility: 6 or more miles (10+ km)
Ceiling: at least 12,000 feet AGL
Clouds: sky clear below 12,000 feet AGL
Weather: no significant weather observed at this time

METAR text: UIUU 161400Z 34003MPS 9999 NSC 02/M08 Q1014 R26/CLRD60 NOSIG RMK QFE716/0955
Conditions at: UIUU (ULAN-UDE/MUHINO , RU) observed 1400 UTC 16 April 2021
Temperature: 2.0°C (36°F)
Dewpoint: -8.0°C (18°F) [RH = 47%]
Pressure (altimeter): 29.94 inches Hg (1014.0 mb)
Winds: from the NNW (340 degrees) at 7 MPH (6 knots; 3.1 m/s)
Visibility: 6 or more miles (10+ km)
Ceiling: at least 12,000 feet AGL
Clouds: sky clear below 12,000 feet AGL
Weather: no significant weather observed at this time

Forecast for: UIUU (ULAN-UDE/MUHINO , RU)
Text: TAF UIUU 161400Z 1615/1715 32003G08MPS 9999 NSC
Forecast period: 1500 UTC 16 April 2021 to 1500 UTC 17 April 2021
Forecast type: FROM: standard forecast or significant change
Winds: from the NW (320 degrees) at 7 MPH (6 knots; 3.1 m/s)
gusting to 18 MPH (16 knots; 8.2 m/s)
Visibility: 6 or more miles (10+ km)
Ceiling: unknown
Clouds: missing
Weather: no significant weather forecast for this period
Text: TEMPO 1615/1715 22005G10MPS
Forecast period: 1500 UTC 16 April 2021 to 1500 UTC 17 April 2021
Forecast type: TEMPORARY: The following changes expected for less than half the time period
Winds: from the SW (220 degrees) at 12 MPH (10 knots; 5.1 m/s)
gusting to 22 MPH (19 knots; 9.8 m/s)
Visibility: missing
Ceiling: unknown
Clouds: missing
Weather: no significant weather forecast for this period